Time;durP1;ratioP1;P1;durP2;ratioP2;P2;SDS_P1;SDS_P2;PMS_P1;PMS_P2;Temp;Humidity;BMP_temperature;BMP_pressure;BME280_temperature;BME280_humidity;BME280_pressure;Samples;Min_cycle;Max_cycle;Signal;HPM_P1;HPM_P2
2022/09/09 00:00:15;;;;;;;7.67;4.60;;;;;;;12.43;100.00;100681.12;1714463;83;21460;-56
2022/09/09 00:03:08;;;;;;;10.50;4.80;;;;;;;12.44;100.00;100675.38;1714074;83;21383;-66
2022/09/09 00:06:04;;;;;;;9.63;4.90;;;;;;;12.44;100.00;100675.38;1691487;83;21964;-55
2022/09/09 00:08:38;;;;;;;7.77;4.20;;;;;;;12.45;100.00;100675.69;1690801;84;21718;-57
2022/09/09 00:11:06;;;;;;;7.50;5.00;;;;;;;12.48;100.00;100670.90;1691058;84;21565;-55
2022/09/09 00:13:51;;;;;;;8.47;5.40;;;;;;;12.50;100.00;100674.63;1691786;84;21585;-55
2022/09/09 00:16:27;;;;;;;10.07;6.03;;;;;;;12.50;100.00;100674.63;1691207;84;21881;-56
2022/09/09 00:19:07;;;;;;;8.23;5.03;;;;;;;12.47;100.00;100661.95;1685187;84;22006;-55
2022/09/09 00:21:37;;;;;;;7.23;4.73;;;;;;;12.41;100.00;100670.02;1690770;83;21427;-66
2022/09/09 00:24:17;;;;;;;11.03;6.20;;;;;;;12.41;100.00;100670.02;1691049;83;21566;-57
2022/09/09 00:26:49;;;;;;;10.07;5.83;;;;;;;12.30;100.00;100669.99;1690430;84;21424;-55
2022/09/09 00:29:45;;;;;;;7.62;5.17;;;;;;;12.30;100.00;100669.99;1691687;83;22003;-64
2022/09/09 00:32:16;;;;;;;9.23;5.10;;;;;;;12.15;100.00;100675.75;1689913;83;21022;-55
2022/09/09 00:34:58;;;;;;;7.73;4.83;;;;;;;12.07;100.00;100674.55;1691594;83;21392;-55
2022/09/09 00:37:27;;;;;;;6.85;4.80;;;;;;;11.91;100.00;100669.84;1682426;84;22005;-61
2022/09/09 00:39:59;;;;;;;7.50;4.83;;;;;;;11.84;100.00;100678.08;1691585;83;21159;-55
2022/09/09 00:42:41;;;;;;;7.00;4.70;;;;;;;11.72;100.00;100678.19;1691246;84;21244;-55
2022/09/09 00:45:17;;;;;;;9.73;5.57;;;;;;;11.60;100.00;100682.25;1690223;84;21347;-61
2022/09/09 00:47:51;;;;;;;8.00;5.20;;;;;;;11.49;100.00;100682.19;1691671;84;22013;-55
2022/09/09 00:50:52;;;;;;;9.57;5.63;;;;;;;11.44;100.00;100680.11;1691747;84;22027;-56
2022/09/09 00:54:01;;;;;;;7.83;4.80;;;;;;;11.37;100.00;100676.59;1690592;84;21427;-55
2022/09/09 00:56:59;;;;;;;10.37;5.37;;;;;;;11.39;100.00;100685.03;1670172;83;21307;-56
2022/09/09 00:59:49;;;;;;;8.70;5.27;;;;;;;11.39;100.00;100675.90;1690677;83;21205;-57
2022/09/09 01:02:22;;;;;;;8.07;4.80;;;;;;;11.32;100.00;100678.90;1691895;84;21320;-55
2022/09/09 01:04:49;;;;;;;7.63;4.73;;;;;;;11.29;100.00;100679.28;1704740;83;21790;-61
2022/09/09 01:07:19;;;;;;;8.77;5.37;;;;;;;11.20;100.00;100686.84;1714345;83;21872;-55
2022/09/09 01:09:56;;;;;;;7.77;5.00;;;;;;;11.20;100.00;100686.84;1714623;83;21297;-55
2022/09/09 01:12:43;;;;;;;6.60;5.07;;;;;;;11.15;100.00;100691.80;1693279;83;21244;-55
2022/09/09 01:15:29;;;;;;;7.43;4.90;;;;;;;11.12;100.00;100694.75;1714647;83;21360;-55
2022/09/09 01:18:06;;;;;;;10.90;5.80;;;;;;;11.09;100.00;100701.12;1692268;83;21269;-55
2022/09/09 01:21:04;;;;;;;8.70;5.20;;;;;;;11.04;100.00;100698.23;1714634;83;21609;-55
2022/09/09 01:23:57;;;;;;;7.97;5.23;;;;;;;11.01;100.00;100704.29;1714467;83;21053;-64
2022/09/09 01:26:38;;;;;;;10.27;5.10;;;;;;;11.03;100.00;100706.25;1713425;83;21224;-55
2022/09/09 01:29:10;;;;;;;9.47;5.47;;;;;;;11.01;100.00;100705.59;1712918;82;21243;-58
2022/09/09 01:31:42;;;;;;;7.00;5.00;;;;;;;11.01;100.00;100709.51;1661995;85;21681;-56
2022/09/09 01:34:12;;;;;;;10.70;5.47;;;;;;;10.94;100.00;100711.49;1661046;85;21243;-55
2022/09/09 01:37:07;;;;;;;9.40;5.23;;;;;;;10.86;100.00;100718.08;1684363;85;21246;-55
2022/09/09 01:39:34;;;;;;;9.87;5.23;;;;;;;10.75;100.00;100722.39;1684613;84;21254;-54
2022/09/09 01:42:05;;;;;;;9.10;5.20;;;;;;;10.69;100.00;100717.38;1684597;84;21204;-55
2022/09/09 01:44:33;;;;;;;11.80;6.30;;;;;;;10.63;100.00;100723.77;1684480;85;21280;-56
2022/09/09 01:47:01;;;;;;;8.77;4.70;;;;;;;10.53;100.00;100717.48;1683052;85;21268;-58
2022/09/09 01:49:28;;;;;;;6.87;4.40;;;;;;;10.52;100.00;100717.14;1684077;84;22123;-55
2022/09/09 01:51:58;;;;;;;7.23;4.43;;;;;;;10.42;100.00;100713.46;1683908;84;21039;-56
2022/09/09 01:54:29;;;;;;;10.65;5.62;;;;;;;10.34;100.00;100714.81;1683169;85;21307;-64
2022/09/09 01:57:37;;;;;;;8.03;5.03;;;;;;;10.31;100.00;100712.54;1660465;85;21078;-65
2022/09/09 02:00:09;;;;;;;7.90;5.33;;;;;;;10.22;100.00;100712.20;1683741;85;21366;-57
2022/09/09 02:03:02;;;;;;;8.17;5.20;;;;;;;10.23;100.00;100724.27;1683574;85;21709;-55
2022/09/09 02:05:39;;;;;;;7.10;4.60;;;;;;;10.15;100.00;100726.42;1682433;84;21306;-56
2022/09/09 02:08:19;;;;;;;11.43;5.30;;;;;;;10.08;100.00;100726.77;1682679;85;21270;-65
2022/09/09 02:11:09;;;;;;;8.33;4.80;;;;;;;10.05;100.00;100735.41;1668124;85;21106;-55
2022/09/09 02:13:39;;;;;;;7.30;5.33;;;;;;;9.98;100.00;100733.95;1652661;85;21701;-56
2022/09/09 02:16:19;;;;;;;8.33;5.10;;;;;;;9.92;100.00;100739.32;1660557;84;21102;-55
2022/09/09 02:19:24;;;;;;;6.37;4.40;;;;;;;9.90;100.00;100737.88;1684249;85;21319;-55
2022/09/09 02:21:49;;;;;;;8.87;4.97;;;;;;;9.83;100.00;100736.42;1682896;85;21246;-54
2022/09/09 02:24:16;;;;;;;10.83;5.20;;;;;;;9.80;100.00;100741.95;1659613;85;21638;-55
2022/09/09 02:26:46;;;;;;;7.33;5.33;;;;;;;9.72;100.00;100740.67;1683150;85;21310;-58
2022/09/09 02:29:24;;;;;;;9.97;5.80;;;;;;;9.70;100.00;100742.65;1684212;84;21254;-56
2022/09/09 02:31:51;;;;;;;9.73;6.23;;;;;;;9.63;100.00;100748.19;1684667;84;21836;-54
2022/09/09 02:34:20;;;;;;;11.13;6.10;;;;;;;9.50;100.00;100755.98;1684233;84;21364;-66
2022/09/09 02:36:48;;;;;;;11.80;7.30;;;;;;;9.43;100.00;100755.03;1684522;84;21647;-55
2022/09/09 02:39:16;;;;;;;16.90;7.57;;;;;;;9.35;100.00;100752.90;1684469;85;22335;-55
2022/09/09 02:41:43;;;;;;;13.90;7.47;;;;;;;9.24;100.00;100757.47;1684378;84;21567;-55
2022/09/09 02:44:18;;;;;;;13.23;7.73;;;;;;;9.16;100.00;100763.94;1684663;84;21482;-55
2022/09/09 02:47:23;;;;;;;19.00;8.10;;;;;;;9.12;100.00;100760.04;1683745;84;22245;-56
2022/09/09 02:50:19;;;;;;;13.53;7.80;;;;;;;9.07;100.00;100761.51;1683846;85;21369;-59
2022/09/09 02:53:07;;;;;;;15.27;7.87;;;;;;;9.07;100.00;100762.81;1684599;84;21862;-55
2022/09/09 02:56:01;;;;;;;13.97;7.20;;;;;;;9.09;100.00;100766.05;1660480;85;21340;-55
2022/09/09 02:58:31;;;;;;;15.43;7.90;;;;;;;9.05;100.00;100776.45;1684547;85;21018;-55
2022/09/09 03:01:02;;;;;;;11.57;6.73;;;;;;;9.09;100.00;100769.95;1683800;85;21115;-66
2022/09/09 03:03:30;;;;;;;10.67;6.73;;;;;;;9.06;100.00;100771.10;1684456;84;21446;-56
2022/09/09 03:05:57;;;;;;;12.50;7.40;;;;;;;9.09;100.00;100770.78;1684674;84;21294;-55
2022/09/09 03:08:27;;;;;;;11.57;6.70;;;;;;;9.13;100.00;100775.16;1660283;85;21278;-55
2022/09/09 03:10:55;;;;;;;11.87;7.00;;;;;;;9.13;100.00;100776.45;1684425;85;21137;-64
2022/09/09 03:13:25;;;;;;;13.47;6.67;;;;;;;9.03;100.00;100784.91;1683699;85;21336;-57
2022/09/09 03:15:52;;;;;;;11.53;6.10;;;;;;;8.89;100.00;100783.23;1683633;85;21731;-55
2022/09/09 03:18:21;;;;;;;13.50;7.07;;;;;;;8.96;100.00;100788.13;1684014;85;21307;-55
2022/09/09 03:20:50;;;;;;;13.70;7.13;;;;;;;9.04;100.00;100794.33;1683954;85;21197;-64
2022/09/09 03:23:19;;;;;;;10.20;6.60;;;;;;;9.22;100.00;100790.63;1683343;84;21296;-60
2022/09/09 03:25:52;;;;;;;14.90;7.93;;;;;;;9.66;100.00;100789.48;1684491;84;21874;-55
2022/09/09 03:28:21;;;;;;;12.73;6.53;;;;;;;10.15;100.00;100790.70;1684270;85;21281;-57
2022/09/09 03:30:49;;;;;;;10.97;6.60;;;;;;;10.83;100.00;100791.44;1684605;84;22013;-55
2022/09/09 03:33:17;;;;;;;9.70;6.43;;;;;;;11.58;100.00;100793.37;1683615;85;21307;-56
2022/09/09 03:35:50;;;;;;;9.73;6.17;;;;;;;12.37;100.00;100794.26;1684805;85;22416;-56
2022/09/09 03:38:19;;;;;;;15.77;6.67;;;;;;;13.23;100.00;100789.19;1661024;85;21344;-55
2022/09/09 03:40:55;;;;;;;8.77;6.00;;;;;;;14.13;100.00;100781.94;1684704;84;21788;-56
2022/09/09 03:43:23;;;;;;;12.37;6.13;;;;;;;14.98;100.00;100781.17;1684344;85;22449;-55
2022/09/09 03:45:52;;;;;;;7.13;5.20;;;;;;;15.86;100.00;100773.94;1684601;84;21018;-56
2022/09/09 03:48:20;;;;;;;9.27;5.50;;;;;;;16.73;100.00;100772.66;1684509;85;21028;-55
2022/09/09 03:50:49;;;;;;;7.77;4.63;;;;;;;17.58;100.00;100765.69;1684827;85;20996;-55
2022/09/09 03:53:18;;;;;;;8.27;4.87;;;;;;;18.38;100.00;100755.64;1683784;85;21071;-55
2022/09/09 03:55:49;;;;;;;8.53;5.33;;;;;;;19.14;100.00;100751.56;1661006;85;21171;-56
2022/09/09 03:58:20;;;;;;;9.03;4.92;;;;;;;19.75;100.00;100746.91;1684727;85;21000;-58
2022/09/09 04:00:57;;;;;;;7.78;4.97;;;;;;;20.35;100.00;100751.32;1685134;84;21059;-59
2022/09/09 04:03:24;;;;;;;8.83;4.97;;;;;;;20.83;100.00;100755.91;1684492;85;21428;-56
2022/09/09 04:05:52;;;;;;;12.17;5.60;;;;;;;21.18;100.00;100753.59;1686012;84;21015;-55
2022/09/09 04:08:20;;;;;;;11.77;6.40;;;;;;;21.36;100.00;100755.48;1686731;85;21943;-56
2022/09/09 04:10:49;;;;;;;9.03;5.63;;;;;;;21.73;99.65;100760.27;1686377;85;21055;-58
2022/09/09 04:13:17;;;;;;;7.57;5.33;;;;;;;22.04;93.86;100762.79;1686128;85;21428;-58
2022/09/09 04:15:55;;;;;;;11.00;6.33;;;;;;;22.43;87.77;100765.42;1686521;85;21113;-55
2022/09/09 04:18:22;;;;;;;9.90;7.40;;;;;;;22.93;80.79;100763.02;1686551;85;21095;-55
2022/09/09 04:20:50;;;;;;;10.83;8.20;;;;;;;23.32;73.65;100769.43;1685228;85;21319;-65
2022/09/09 04:23:19;;;;;;;11.53;7.43;;;;;;;23.77;68.45;100772.15;1686407;85;21491;-56
2022/09/09 04:25:51;;;;;;;11.53;7.10;;;;;;;24.27;63.32;100776.89;1691675;84;21055;-55
2022/09/09 04:28:20;;;;;;;8.60;5.63;;;;;;;24.64;58.43;100779.16;1691882;83;20971;-57
2022/09/09 04:30:47;;;;;;;7.83;6.20;;;;;;;25.02;56.42;100786.41;1696525;83;21544;-61
2022/09/09 04:33:15;;;;;;;6.67;5.45;;;;;;;25.38;51.84;100784.03;1695945;84;21169;-57
2022/09/09 04:35:49;;;;;;;6.10;4.75;;;;;;;25.72;49.81;100787.41;1694162;84;21003;-56
2022/09/09 04:38:18;;;;;;;9.30;5.33;;;;;;;25.99;47.17;100790.30;1694092;84;21067;-61
2022/09/09 04:40:46;;;;;;;8.30;5.12;;;;;;;26.20;45.79;100786.48;1665484;84;21502;-57
2022/09/09 04:43:15;;;;;;;7.25;4.92;;;;;;;26.30;44.03;100783.77;1694247;84;21468;-56
2022/09/09 04:45:43;;;;;;;6.72;4.90;;;;;;;26.22;43.61;100782.22;1694352;84;21264;-56
2022/09/09 04:48:12;;;;;;;6.92;5.50;;;;;;;26.30;43.66;100778.97;1666946;84;20952;-56
2022/09/09 04:50:40;;;;;;;8.93;5.40;;;;;;;26.27;42.71;100780.31;1693367;84;21060;-58
2022/09/09 04:53:08;;;;;;;9.15;5.62;;;;;;;25.69;42.52;100774.62;1665978;84;22372;-57
2022/09/09 04:55:37;;;;;;;7.33;5.50;;;;;;;24.68;43.15;100784.23;1693917;84;21584;-55
2022/09/09 04:58:08;;;;;;;9.65;5.92;;;;;;;23.60;45.87;100786.11;1693751;84;22561;-56
2022/09/09 05:00:36;;;;;;;7.45;6.15;;;;;;;22.80;48.67;100788.63;1692926;84;21055;-64
2022/09/09 05:03:05;;;;;;;8.47;6.40;;;;;;;22.29;51.79;100782.78;1692960;84;21003;-57
2022/09/09 05:05:35;;;;;;;7.47;6.27;;;;;;;22.50;54.11;100790.44;1693485;84;21925;-56
2022/09/09 05:08:04;;;;;;;9.30;5.75;;;;;;;23.18;53.92;100790.33;1693766;84;26359;-55
2022/09/09 05:10:33;;;;;;;9.80;6.10;;;;;;;23.89;52.46;100796.70;1693459;84;21337;-56
2022/09/09 05:13:00;;;;;;;6.85;5.20;;;;;;;24.58;50.77;100788.20;1693177;84;21169;-57
2022/09/09 05:15:30;;;;;;;7.03;5.70;;;;;;;24.95;48.01;100789.33;1694058;84;21384;-56
2022/09/09 05:18:00;;;;;;;7.10;5.15;;;;;;;24.95;46.40;100796.00;1693831;84;21055;-56
2022/09/09 05:20:28;;;;;;;7.70;5.00;;;;;;;24.64;46.17;100793.82;1660575;84;21134;-60
2022/09/09 05:22:56;;;;;;;9.85;4.95;;;;;;;24.16;46.21;100788.56;1692899;84;21168;-66
2022/09/09 05:25:27;;;;;;;6.78;5.05;;;;;;;23.47;46.79;100786.83;1693700;84;21391;-55
2022/09/09 05:27:54;;;;;;;;;;;;;;;22.59;47.96;100799.06;1696403;84;21157;-56
2022/09/09 05:30:23;;;;;;;7.23;4.50;;;;;;;21.72;49.46;100804.30;1693400;84;20143;-66
2022/09/09 05:32:50;;;;;;;7.10;4.43;;;;;;;21.08;51.89;100809.36;1662461;84;21621;-66
2022/09/09 05:35:18;;;;;;;8.83;5.13;;;;;;;20.62;53.35;100807.73;1693375;84;21508;-55
2022/09/09 05:37:47;;;;;;;11.80;5.53;;;;;;;20.00;55.47;100808.31;1693729;84;21067;-55
2022/09/09 05:40:15;;;;;;;7.80;4.30;;;;;;;19.62;61.40;100814.05;1693804;84;21575;-65
2022/09/09 05:42:42;;;;;;;6.50;4.43;;;;;;;19.66;66.89;100813.88;1693507;84;21255;-64
2022/09/09 05:45:10;;;;;;;5.70;3.93;;;;;;;19.66;65.82;100812.05;1693532;84;20896;-56
2022/09/09 05:47:39;;;;;;;7.77;4.73;;;;;;;19.61;64.14;100820.34;1693866;84;21533;-57
2022/09/09 05:50:08;;;;;;;7.37;4.80;;;;;;;19.51;65.68;100820.92;1694009;84;20940;-63
2022/09/09 05:52:37;;;;;;;8.43;4.60;;;;;;;19.61;67.52;100819.82;1692994;84;21007;-59
2022/09/09 05:55:06;;;;;;;6.87;4.10;;;;;;;19.73;65.89;100820.37;1693444;84;21075;-55
2022/09/09 05:57:33;;;;;;;6.73;4.23;;;;;;;19.90;64.65;100823.95;1693966;84;21016;-55
2022/09/09 06:00:02;;;;;;;8.53;5.67;;;;;;;20.06;63.99;100828.54;1693826;84;21277;-55
2022/09/09 06:02:32;;;;;;;8.28;5.58;;;;;;;20.15;61.76;100825.02;1691558;84;21514;-55
2022/09/09 06:05:00;;;;;;;7.57;5.20;;;;;;;20.20;62.97;100821.69;1694975;84;21427;-55
2022/09/09 06:07:27;;;;;;;9.50;5.63;;;;;;;20.41;62.14;100818.41;1694662;84;20908;-56
2022/09/09 06:09:56;;;;;;;7.40;4.40;;;;;;;20.51;59.03;100814.67;1694505;84;21509;-55
2022/09/09 06:12:23;;;;;;;8.93;5.47;;;;;;;20.41;58.59;100815.23;1693958;84;21281;-65
2022/09/09 06:14:51;;;;;;;8.03;5.10;;;;;;;20.45;60.92;100806.30;1693856;84;20892;-56
2022/09/09 06:17:19;;;;;;;8.00;5.37;;;;;;;20.54;58.40;100812.89;1694193;84;21902;-55
2022/09/09 06:19:46;;;;;;;8.33;5.63;;;;;;;20.41;58.57;100818.41;1694033;84;21086;-55
2022/09/09 06:22:14;;;;;;;7.93;5.00;;;;;;;20.28;60.59;100816.83;1694231;84;21086;-56
2022/09/09 06:24:42;;;;;;;9.10;4.90;;;;;;;20.58;60.37;100818.52;1661157;84;21704;-57
2022/09/09 06:27:09;;;;;;;8.23;6.00;;;;;;;20.76;58.08;100819.67;1693762;84;21478;-55
2022/09/09 06:29:36;;;;;;;8.60;5.93;;;;;;;21.07;56.38;100822.87;1693797;84;21501;-55
2022/09/09 06:32:04;;;;;;;7.83;5.37;;;;;;;21.46;56.10;100826.98;1693631;84;21024;-56
2022/09/09 06:34:31;;;;;;;7.43;5.23;;;;;;;21.88;52.88;100826.02;1694083;84;21611;-56
2022/09/09 06:37:00;;;;;;;7.47;5.10;;;;;;;22.05;52.21;100827.34;1693291;84;21761;-57
2022/09/09 06:39:29;;;;;;;6.53;5.00;;;;;;;22.33;51.87;100829.04;1693234;84;21267;-57
2022/09/09 06:41:57;;;;;;;6.10;4.20;;;;;;;22.66;50.90;100828.64;1694231;84;21003;-55
2022/09/09 06:44:43;;;;;;;6.25;3.83;;;;;;;23.11;49.57;100830.16;1694268;84;21453;-56
2022/09/09 06:47:11;;;;;;;5.87;4.42;;;;;;;23.56;47.39;100836.38;1694401;84;21493;-55
2022/09/09 06:49:39;;;;;;;5.95;4.17;;;;;;;23.70;46.56;100840.25;1694461;84;21891;-55
2022/09/09 06:52:08;;;;;;;5.40;4.03;;;;;;;23.75;45.92;100844.30;1693850;84;21039;-66
2022/09/09 06:54:37;;;;;;;5.83;4.42;;;;;;;23.66;45.81;100847.14;1638544;84;21023;-65
2022/09/09 06:57:07;;;;;;;7.47;5.22;;;;;;;23.78;46.72;100846.95;1693837;84;21058;-56
2022/09/09 06:59:34;;;;;;;5.65;4.22;;;;;;;24.00;45.87;100847.63;1694209;84;21027;-56
2022/09/09 07:02:02;;;;;;;6.03;4.50;;;;;;;24.09;46.38;100852.45;1693902;84;21592;-66
2022/09/09 07:04:30;;;;;;;6.25;4.65;;;;;;;24.42;44.95;100853.45;1683771;85;21513;-65
2022/09/09 07:06:58;;;;;;;6.15;4.17;;;;;;;24.52;44.26;100848.70;1712350;83;21293;-56
2022/09/09 07:09:27;;;;;;;6.40;4.47;;;;;;;24.62;44.41;100853.25;1711380;83;21094;-56
2022/09/09 07:11:54;;;;;;;6.97;3.75;;;;;;;24.86;44.52;100850.39;1691403;84;21026;-56
2022/09/09 07:14:23;;;;;;;5.85;4.35;;;;;;;25.45;43.25;100855.27;1710544;83;21292;-60
2022/09/09 07:16:52;;;;;;;4.25;3.12;;;;;;;26.15;40.67;100851.98;1690875;84;21114;-60
2022/09/09 07:19:20;;;;;;;5.72;3.72;;;;;;;26.73;39.78;100858.97;1711416;83;22072;-55
2022/09/09 07:21:49;;;;;;;5.83;4.15;;;;;;;27.22;38.98;100859.48;1691521;84;21142;-56
2022/09/09 07:24:18;;;;;;;4.80;3.70;;;;;;;27.49;37.59;100855.51;1710889;83;21005;-57
2022/09/09 07:26:46;;;;;;;4.78;3.75;;;;;;;27.29;36.42;100861.30;1691598;84;21396;-57
2022/09/09 07:29:13;;;;;;;6.50;4.03;;;;;;;26.96;37.63;100856.69;1711307;83;21094;-56
2022/09/09 07:31:42;;;;;;;4.05;2.92;;;;;;;27.01;36.30;100860.14;1691563;84;21015;-56
2022/09/09 07:34:11;;;;;;;7.27;4.07;;;;;;;26.94;36.53;100854.30;1710757;83;20912;-56
2022/09/09 07:36:39;;;;;;;5.15;3.85;;;;;;;26.80;36.67;100854.11;1691412;84;21475;-57
2022/09/09 07:39:12;;;;;;;5.10;3.15;;;;;;;26.67;36.56;100858.20;1710999;83;21949;-56
2022/09/09 07:41:43;;;;;;;5.28;3.70;;;;;;;26.72;37.48;100868.07;1685081;84;21028;-56
2022/09/09 07:44:15;;;;;;;4.33;3.50;;;;;;;27.23;36.39;100856.25;1710998;83;20964;-55
2022/09/09 07:46:42;;;;;;;5.20;3.72;;;;;;;27.53;35.15;100856.00;1661695;84;21509;-56
2022/09/09 07:49:11;;;;;;;4.62;3.50;;;;;;;27.45;35.50;100854.48;1711124;83;20956;-56
2022/09/09 07:51:40;;;;;;;4.60;3.70;;;;;;;27.91;35.37;100856.73;1691419;84;21289;-65
2022/09/09 07:54:10;;;;;;;5.10;3.70;;;;;;;28.19;33.85;100861.80;1711553;83;21008;-55
2022/09/09 07:56:39;;;;;;;5.95;4.03;;;;;;;28.12;34.08;100862.94;1691364;84;21026;-56
2022/09/09 07:59:09;;;;;;;6.05;3.67;;;;;;;28.08;33.87;100858.44;1711210;83;21040;-57
2022/09/09 08:01:40;;;;;;;5.72;4.22;;;;;;;28.24;33.57;100859.05;1684725;84;21489;-57
2022/09/09 08:04:15;;;;;;;5.50;3.30;;;;;;;28.51;33.69;100860.61;1711488;83;21278;-56
2022/09/09 08:06:46;;;;;;;5.00;3.50;;;;;;;28.69;33.40;100859.58;1688324;84;20896;-57
2022/09/09 08:09:14;;;;;;;7.12;4.03;;;;;;;28.80;33.10;100860.48;1713287;83;21963;-56
2022/09/09 08:11:41;;;;;;;5.17;3.70;;;;;;;28.56;32.77;100863.24;1713686;83;20921;-60
2022/09/09 08:14:10;;;;;;;5.53;3.90;;;;;;;28.70;33.20;100866.53;1714241;83;22090;-56
2022/09/09 08:16:41;;;;;;;6.35;3.62;;;;;;;29.05;32.67;100874.09;1715863;82;21867;-56
2022/09/09 08:19:08;;;;;;;4.78;3.22;;;;;;;29.50;32.20;100874.99;1714063;83;20988;-55
2022/09/09 08:21:38;;;;;;;10.72;4.12;;;;;;;29.68;31.29;100880.89;1713828;83;21063;-55
2022/09/09 08:24:06;;;;;;;5.35;3.30;;;;;;;29.62;30.75;100875.34;1692352;83;20987;-57
2022/09/09 08:26:42;;;;;;;4.75;3.45;;;;;;;29.50;30.65;100872.30;1714060;83;21023;-55
2022/09/09 08:29:11;;;;;;;5.20;3.55;;;;;;;29.42;31.06;100863.58;1714151;83;21254;-66
2022/09/09 08:31:45;;;;;;;5.03;3.15;;;;;;;29.44;30.67;100864.89;1714308;82;21553;-56
2022/09/09 08:34:13;;;;;;;4.35;3.80;;;;;;;28.96;30.76;100875.02;1714961;83;21497;-55
2022/09/09 08:36:43;;;;;;;4.60;3.40;;;;;;;28.07;31.17;100871.05;1714525;83;21149;-56
2022/09/09 08:39:15;;;;;;;5.35;3.27;;;;;;;27.51;32.21;100873.45;1713341;83;20991;-59
2022/09/09 08:42:19;;;;;;;4.83;3.72;;;;;;;27.84;31.98;100863.77;1714594;83;21888;-55
2022/09/09 08:45:06;;;;;;;6.33;3.55;;;;;;;27.84;31.98;100863.77;1713840;83;21036;-65
2022/09/09 08:48:10;;;;;;;4.85;3.65;;;;;;;28.30;31.80;100855.23;1714762;83;21596;-56
2022/09/09 08:50:38;;;;;;;4.92;3.45;;;;;;;28.45;31.56;100853.73;1714575;83;21078;-55
2022/09/09 08:53:22;;;;;;;4.70;3.30;;;;;;;28.03;31.79;100863.83;1714958;83;21016;-55
2022/09/09 08:56:03;;;;;;;5.17;3.12;;;;;;;27.51;32.37;100852.02;1714149;83;21292;-65
2022/09/09 08:58:40;;;;;;;5.17;3.47;;;;;;;27.28;32.50;100851.67;1714293;83;21000;-55
2022/09/09 09:01:42;;;;;;;6.03;3.30;;;;;;;26.79;32.52;100856.53;1692072;83;21564;-55
2022/09/09 09:04:49;;;;;;;5.17;2.95;;;;;;;26.40;32.89;100842.54;1715690;83;20988;-56
2022/09/09 09:07:31;;;;;;;5.15;3.12;;;;;;;25.98;33.95;100839.47;1714234;83;21094;-55
2022/09/09 09:10:12;;;;;;;5.78;3.60;;;;;;;26.24;34.29;100837.52;1714380;83;21336;-56
2022/09/09 09:12:42;;;;;;;4.90;3.67;;;;;;;26.47;34.13;100839.58;1714234;83;21432;-57
2022/09/09 09:15:21;;;;;;;5.27;3.17;;;;;;;26.43;33.82;100847.31;1714559;83;21022;-55
2022/09/09 09:17:49;;;;;;;5.33;3.25;;;;;;;26.53;34.40;100853.73;1685249;83;21478;-63
2022/09/09 09:20:22;;;;;;;6.60;3.62;;;;;;;26.59;34.22;100853.95;1713798;83;22603;-64
2022/09/09 09:22:52;;;;;;;4.87;3.40;;;;;;;26.44;34.33;100854.28;1714377;83;21332;-56
2022/09/09 09:25:26;;;;;;;6.42;2.95;;;;;;;26.50;34.62;100853.73;1714121;83;20991;-56
2022/09/09 09:28:21;;;;;;;4.73;3.40;;;;;;;26.83;33.94;100849.55;1713925;82;20992;-56
2022/09/09 09:31:05;;;;;;;8.15;3.22;;;;;;;27.30;33.74;100849.50;1714042;83;21051;-56
2022/09/09 09:33:49;;;;;;;5.05;3.22;;;;;;;27.48;32.51;100839.19;1714292;83;21071;-65
2022/09/09 09:36:17;;;;;;;5.45;3.67;;;;;;;27.46;33.30;100844.02;1714433;83;21721;-55
2022/09/09 09:39:00;;;;;;;4.85;3.15;;;;;;;27.62;33.31;100842.27;1713401;83;21568;-61
2022/09/09 09:41:35;;;;;;;6.92;3.75;;;;;;;27.56;32.85;100843.39;1713621;83;21082;-55
2022/09/09 09:44:04;;;;;;;4.12;3.10;;;;;;;27.35;32.74;100842.78;1714184;82;21502;-55
2022/09/09 09:46:31;;;;;;;4.80;3.37;;;;;;;27.19;32.69;100845.84;1713620;83;21462;-55
2022/09/09 09:49:05;;;;;;;5.13;3.03;;;;;;;26.57;33.13;100847.55;1714578;83;21140;-55
2022/09/09 09:51:33;;;;;;;4.33;3.43;;;;;;;26.18;33.86;100846.10;1713588;83;21525;-55
2022/09/09 09:54:09;;;;;;;5.45;3.62;;;;;;;25.81;34.33;100855.27;1714242;83;22085;-59
2022/09/09 09:56:37;;;;;;;4.90;3.33;;;;;;;25.80;35.04;100846.17;1713725;83;21708;-56
2022/09/09 09:59:08;;;;;;;5.33;3.30;;;;;;;26.02;35.20;100861.89;1714159;83;21020;-57
2022/09/09 10:01:37;;;;;;;5.40;3.47;;;;;;;26.10;34.54;100854.66;1713577;83;21512;-55
2022/09/09 10:04:19;;;;;;;5.17;3.52;;;;;;;26.04;34.35;100858.42;1714003;82;20983;-56
2022/09/09 10:06:47;;;;;;;5.80;3.25;;;;;;;25.88;34.98;100855.80;1714095;83;21153;-61
2022/09/09 10:09:32;;;;;;;5.67;3.83;;;;;;;25.68;35.46;100862.45;1714316;83;38628;-55
2022/09/09 10:12:33;;;;;;;6.47;3.40;;;;;;;25.56;35.64;100865.94;1714385;83;21527;-55
2022/09/09 10:15:28;;;;;;;;;;;;;;;25.59;36.19;100860.08;1716634;83;21210;-61
2022/09/09 10:18:16;;;;;;;4.17;3.10;;;;;;;25.89;35.93;100858.72;1713271;83;20473;-55
2022/09/09 10:20:57;;;;;;;6.97;3.60;;;;;;;26.43;34.90;100855.88;1712801;83;21011;-57
2022/09/09 10:24:11;;;;;;;5.50;3.47;;;;;;;26.53;34.16;100847.05;1713910;83;20960;-65
2022/09/09 10:26:55;;;;;;;5.23;3.33;;;;;;;26.39;33.53;100858.30;1713762;82;21052;-58
2022/09/09 10:30:08;;;;;;;4.83;3.47;;;;;;;25.94;34.29;100852.56;1714429;83;21173;-66
2022/09/09 10:32:52;;;;;;;5.83;3.37;;;;;;;26.20;34.23;100859.43;1713763;83;21873;-55
2022/09/09 10:35:43;;;;;;;5.30;3.20;;;;;;;26.99;33.93;100854.80;1713851;82;21107;-55
2022/09/09 10:38:45;;;;;;;4.60;3.30;;;;;;;26.84;33.13;100850.34;1714381;83;21294;-55
2022/09/09 10:41:27;;;;;;;4.70;3.67;;;;;;;26.07;33.86;100863.23;1713450;83;20960;-58
2022/09/09 10:44:14;;;;;;;6.17;3.63;;;;;;;25.71;35.19;100866.72;1710699;83;21346;-66
2022/09/09 10:46:52;;;;;;;3.97;3.30;;;;;;;25.63;35.46;100862.47;1713631;83;20964;-66
2022/09/09 10:50:08;;;;;;;5.30;3.30;;;;;;;25.86;34.74;100863.80;1714087;83;21000;-67
2022/09/09 10:53:13;;;;;;;4.67;3.17;;;;;;;26.22;34.65;100857.84;1714461;83;21054;-62
2022/09/09 10:55:45;;;;;;;4.47;3.17;;;;;;;26.88;34.03;100842.03;1714410;83;21070;-56
2022/09/09 10:58:24;;;;;;;5.00;3.47;;;;;;;27.52;32.41;100838.88;1714235;82;21267;-66
2022/09/09 11:00:57;;;;;;;4.87;3.43;;;;;;;27.28;32.09;100845.53;1713116;83;21007;-66
2022/09/09 11:03:26;;;;;;;5.23;2.90;;;;;;;26.79;33.33;100843.70;1714454;82;21496;-55
2022/09/09 11:06:02;;;;;;;4.30;3.20;;;;;;;26.37;33.83;100847.09;1713992;83;20996;-58
2022/09/09 11:08:32;;;;;;;4.97;3.23;;;;;;;25.86;33.97;100857.92;1712327;83;21046;-56
2022/09/09 11:11:16;;;;;;;5.87;3.80;;;;;;;24.97;34.56;100854.68;1711566;83;20901;-55
2022/09/09 11:13:52;;;;;;;9.23;4.13;;;;;;;24.24;36.08;100859.19;1691100;84;21016;-56
2022/09/09 11:16:36;;;;;;;5.03;3.73;;;;;;;23.98;37.14;100859.08;1710632;83;20984;-66
2022/09/09 11:19:17;;;;;;;5.07;3.07;;;;;;;24.12;36.77;100852.74;1690977;84;20997;-62
2022/09/09 11:21:47;;;;;;;6.50;3.60;;;;;;;24.34;36.53;100854.45;1711412;83;21010;-62
2022/09/09 11:24:23;;;;;;;7.90;4.17;;;;;;;24.68;35.92;100841.02;1691449;84;21786;-57
2022/09/09 11:27:02;;;;;;;5.67;3.90;;;;;;;25.13;34.76;100841.39;1648653;83;22369;-65
2022/09/09 11:30:21;;;;;;;4.63;3.40;;;;;;;25.38;33.99;100836.07;1710430;83;21005;-57
2022/09/09 11:33:21;;;;;;;5.10;3.20;;;;;;;25.53;34.37;100842.45;1711695;83;21008;-57
2022/09/09 11:36:08;;;;;;;5.33;3.20;;;;;;;25.59;34.72;100833.37;1647807;86;21024;-57
2022/09/09 11:38:46;;;;;;;4.63;2.53;;;;;;;25.32;34.64;100835.00;1710678;83;21383;-56
2022/09/09 11:41:14;;;;;;;4.80;3.00;;;;;;;25.16;35.21;100844.88;1690934;84;21060;-55
2022/09/09 11:43:52;;;;;;;4.77;2.93;;;;;;;25.30;35.64;100843.80;1711187;83;21054;-56
2022/09/09 11:46:22;;;;;;;4.77;3.27;;;;;;;25.45;35.18;100837.91;1691253;84;21036;-56
2022/09/09 11:49:01;;;;;;;4.03;3.02;;;;;;;25.45;34.99;100832.58;1710882;83;21031;-57
2022/09/09 11:51:30;;;;;;;4.77;3.00;;;;;;;25.53;34.52;100835.77;1691765;84;21632;-55
2022/09/09 11:54:17;;;;;;;4.37;2.83;;;;;;;25.59;34.63;100839.52;1711145;83;21019;-57
2022/09/09 11:56:45;;;;;;;4.43;3.27;;;;;;;25.70;34.23;100830.42;1691648;84;21555;-55